Time;durP1;ratioP1;P1;durP2;ratioP2;P2;SDS_P1;SDS_P2;PMS_P1;PMS_P2;Temp;Humidity;BMP_temperature;BMP_pressure;BME280_temperature;BME280_humidity;BME280_pressure;Samples;Min_cycle;Max_cycle;Signal;HPM_P1;HPM_P2
2023/03/09 00:02:20;;;;;;;12.43;8.47;;;;;;;;;;774189;181;918544;-66
2023/03/09 00:04:46;;;;;;;12.57;9.07;;;;;;;;;;768914;181;918861;-67
2023/03/09 00:07:12;;;;;;;12.37;8.53;;;;;;;;;;778521;179;918634;-67
2023/03/09 00:09:38;;;;;;;13.73;9.52;;;;;;;;;;768861;179;919510;-67
2023/03/09 00:12:03;;;;;;;12.70;8.93;;;;;;;;;;764830;183;918897;-65
2023/03/09 00:14:29;;;;;;;12.63;8.63;;;;;;;;;;767377;181;918334;-67
2023/03/09 00:16:55;;;;;;;12.37;9.00;;;;;;;;;;777878;181;918005;-65
2023/03/09 00:19:26;;;;;;;15.00;8.47;;;;;;;;;;770987;181;918504;-65
2023/03/09 00:21:51;;;;;;;16.67;8.60;;;;;;;;;;768607;179;882984;-66
2023/03/09 00:24:13;;;;;;;14.97;7.87;;;;;;;;;;774512;179;896009;-64
2023/03/09 00:26:39;;;;;;;14.60;8.20;;;;;;;;;;766516;182;919269;-66
2023/03/09 00:29:04;;;;;;;11.80;6.60;;;;;;;;;;772010;180;924347;-66
2023/03/09 00:31:30;;;;;;;15.17;9.03;;;;;;;;;;778496;181;919114;-65
2023/03/09 00:33:56;;;;;;;12.97;8.37;;;;;;;;;;774180;181;916253;-66
2023/03/09 00:36:22;;;;;;;16.83;8.10;;;;;;;;;;771605;181;917262;-66
2023/03/09 00:38:49;;;;;;;10.53;7.27;;;;;;;;;;771715;181;918159;-65
2023/03/09 00:41:14;;;;;;;12.17;8.00;;;;;;;;;;775226;179;918334;-65
2023/03/09 00:43:40;;;;;;;13.37;7.70;;;;;;;;;;770897;181;919178;-65
2023/03/09 00:46:06;;;;;;;12.87;7.70;;;;;;;;;;771379;181;919068;-66
2023/03/09 00:48:32;;;;;;;9.65;5.50;;;;;;;;;;776636;181;920970;-65
2023/03/09 00:50:58;;;;;;;10.30;6.33;;;;;;;;;;772503;181;916360;-64
2023/03/09 00:53:24;;;;;;;11.13;6.70;;;;;;;;;;772552;181;915671;-66
2023/03/09 00:55:49;;;;;;;11.27;7.80;;;;;;;;;;777074;180;897069;-64
2023/03/09 00:58:15;;;;;;;11.80;6.40;;;;;;;;;;771842;181;1019079;-65
2023/03/09 01:00:41;;;;;;;8.77;6.50;;;;;;;;;;770459;181;906140;-65
2023/03/09 01:03:07;;;;;;;10.30;7.03;;;;;;;;;;770044;181;918962;-65
2023/03/09 01:05:33;;;;;;;9.33;5.80;;;;;;;;;;764691;180;922827;-67
2023/03/09 01:07:59;;;;;;;15.07;6.27;;;;;;;;;;758451;181;919783;-63
2023/03/09 01:10:24;;;;;;;11.53;6.37;;;;;;;;;;762575;182;918750;-67
2023/03/09 01:12:50;;;;;;;10.60;6.60;;;;;;;;;;767911;180;921744;-66
2023/03/09 01:15:16;;;;;;;9.27;6.73;;;;;;;;;;767077;182;920363;-65
2023/03/09 01:17:42;;;;;;;12.10;7.13;;;;;;;;;;767032;180;919873;-66
2023/03/09 01:20:09;;;;;;;9.83;6.13;;;;;;;;;;773724;181;919747;-67
2023/03/09 01:22:35;;;;;;;7.60;5.43;;;;;;;;;;769921;179;919097;-65
2023/03/09 01:25:00;;;;;;;10.88;7.30;;;;;;;;;;767093;181;919206;-65
2023/03/09 01:27:27;;;;;;;13.68;7.57;;;;;;;;;;772032;181;916377;-66
2023/03/09 01:29:52;;;;;;;10.37;6.17;;;;;;;;;;761580;184;918835;-66
2023/03/09 01:32:18;;;;;;;10.13;6.97;;;;;;;;;;755720;185;919372;-67
2023/03/09 01:34:44;;;;;;;12.17;6.50;;;;;;;;;;756462;182;918701;-65
2023/03/09 01:37:10;;;;;;;10.10;6.13;;;;;;;;;;774997;180;920806;-65
2023/03/09 01:39:36;;;;;;;10.50;6.27;;;;;;;;;;773776;180;917458;-67
2023/03/09 01:42:02;;;;;;;8.57;5.23;;;;;;;;;;769485;181;919171;-65
2023/03/09 01:44:27;;;;;;;17.23;6.73;;;;;;;;;;776780;181;921008;-66
2023/03/09 01:46:55;;;;;;;11.47;7.00;;;;;;;;;;774027;181;917396;-66
2023/03/09 01:49:24;;;;;;;9.83;6.23;;;;;;;;;;774032;181;818719;-66
2023/03/09 01:51:51;;;;;;;9.27;5.70;;;;;;;;;;763582;182;919009;-64
2023/03/09 01:54:17;;;;;;;10.40;6.50;;;;;;;;;;768142;182;942564;-65
2023/03/09 01:56:42;;;;;;;10.97;6.57;;;;;;;;;;774327;180;817130;-65
2023/03/09 01:59:08;;;;;;;9.67;6.07;;;;;;;;;;772482;181;919051;-65
2023/03/09 02:01:36;;;;;;;9.47;5.27;;;;;;;;;;771846;182;916108;-65
2023/03/09 02:04:00;;;;;;;9.90;6.60;;;;;;;;;;770137;182;916605;-66
2023/03/09 02:06:26;;;;;;;11.00;6.47;;;;;;;;;;774895;180;814846;-66
2023/03/09 02:08:52;;;;;;;8.47;6.03;;;;;;;;;;775568;181;919766;-66
2023/03/09 02:11:17;;;;;;;8.33;6.17;;;;;;;;;;771141;181;916329;-65
2023/03/09 02:13:43;;;;;;;9.67;6.20;;;;;;;;;;774037;181;1017026;-66
2023/03/09 02:16:09;;;;;;;10.80;5.47;;;;;;;;;;769032;181;920014;-66
2023/03/09 02:18:36;;;;;;;12.20;7.37;;;;;;;;;;762670;183;919355;-66
2023/03/09 02:21:04;;;;;;;9.87;6.40;;;;;;;;;;768599;181;918538;-67
2023/03/09 02:23:31;;;;;;;7.80;5.77;;;;;;;;;;774394;180;921208;-66
2023/03/09 02:26:15;;;;;;;8.00;5.30;;;;;;;;;;769777;180;907464;-68
2023/03/09 02:28:41;;;;;;;11.37;6.37;;;;;;;;;;763562;182;921118;-67
2023/03/09 02:31:07;;;;;;;10.63;5.90;;;;;;;;;;769247;180;916613;-67
2023/03/09 02:33:33;;;;;;;9.15;5.35;;;;;;;;;;773599;181;920639;-68
2023/03/09 02:35:58;;;;;;;9.17;5.50;;;;;;;;;;769127;181;919956;-68
2023/03/09 02:38:24;;;;;;;9.77;5.07;;;;;;;;;;761839;185;825461;-67
2023/03/09 02:40:50;;;;;;;10.87;5.50;;;;;;;;;;764373;182;920859;-67
2023/03/09 02:43:16;;;;;;;6.30;4.37;;;;;;;;;;765100;182;918992;-69
2023/03/09 02:45:42;;;;;;;6.47;4.83;;;;;;;;;;774178;181;919847;-67
2023/03/09 02:48:08;;;;;;;10.70;5.90;;;;;;;;;;772420;181;919881;-68
2023/03/09 02:50:33;;;;;;;6.53;4.30;;;;;;;;;;772438;181;916008;-68
2023/03/09 02:53:00;;;;;;;7.80;5.10;;;;;;;;;;779106;180;919346;-67
2023/03/09 02:55:25;;;;;;;5.70;4.07;;;;;;;;;;772999;181;822133;-67
2023/03/09 02:57:51;;;;;;;7.80;5.45;;;;;;;;;;772216;181;1020956;-68
2023/03/09 03:00:21;;;;;;;8.20;5.20;;;;;;;;;;774389;181;1020813;-68
2023/03/09 03:02:43;;;;;;;7.50;4.73;;;;;;;;;;781440;179;629862;-67
2023/03/09 03:05:09;;;;;;;7.70;4.80;;;;;;;;;;764188;181;916747;-69
2023/03/09 03:07:35;;;;;;;7.57;4.60;;;;;;;;;;772094;181;919394;-68
2023/03/09 03:10:01;;;;;;;8.87;5.50;;;;;;;;;;776380;181;920633;-67
2023/03/09 03:12:27;;;;;;;8.80;4.37;;;;;;;;;;771363;181;919181;-69
2023/03/09 03:14:53;;;;;;;7.40;4.40;;;;;;;;;;770395;181;915832;-71
2023/03/09 03:17:18;;;;;;;7.27;5.13;;;;;;;;;;776797;181;918728;-68
2023/03/09 03:19:44;;;;;;;9.83;5.50;;;;;;;;;;773434;181;857614;-71
2023/03/09 03:22:10;;;;;;;8.77;5.50;;;;;;;;;;772330;181;919348;-68
2023/03/09 03:24:36;;;;;;;7.87;5.07;;;;;;;;;;774095;181;817992;-70
2023/03/09 03:27:02;;;;;;;8.73;4.80;;;;;;;;;;772020;181;918784;-69
2023/03/09 03:29:28;;;;;;;8.13;4.20;;;;;;;;;;769128;181;819248;-71
2023/03/09 03:31:54;;;;;;;7.63;5.70;;;;;;;;;;766692;182;920895;-70
2023/03/09 03:34:20;;;;;;;9.60;5.27;;;;;;;;;;773435;181;919141;-68
2023/03/09 03:36:46;;;;;;;9.97;5.53;;;;;;;;;;768098;181;918557;-68
2023/03/09 03:39:12;;;;;;;7.28;4.72;;;;;;;;;;768581;182;814796;-69
2023/03/09 03:41:37;;;;;;;9.17;4.10;;;;;;;;;;779135;181;907337;-70
2023/03/09 03:44:03;;;;;;;7.97;5.13;;;;;;;;;;773693;180;919080;-70
2023/03/09 03:46:30;;;;;;;6.43;4.83;;;;;;;;;;771923;181;918530;-68
2023/03/09 03:48:55;;;;;;;9.40;5.17;;;;;;;;;;779755;181;912813;-68
2023/03/09 03:51:21;;;;;;;6.73;4.47;;;;;;;;;;775597;180;1090052;-70
2023/03/09 03:53:47;;;;;;;6.43;4.70;;;;;;;;;;769298;181;918994;-68
2023/03/09 03:56:13;;;;;;;8.73;4.13;;;;;;;;;;773202;181;918161;-70
2023/03/09 03:58:38;;;;;;;9.23;6.07;;;;;;;;;;774926;179;899926;-68
2023/03/09 04:01:04;;;;;;;8.10;4.10;;;;;;;;;;771633;180;919567;-70
2023/03/09 04:03:30;;;;;;;8.67;4.80;;;;;;;;;;767682;179;922170;-68
2023/03/09 04:05:56;;;;;;;7.20;4.63;;;;;;;;;;775744;181;918751;-68
2023/03/09 04:08:22;;;;;;;9.90;4.73;;;;;;;;;;772994;181;919562;-70
2023/03/09 04:10:48;;;;;;;9.23;4.37;;;;;;;;;;767731;181;921578;-68
2023/03/09 04:13:14;;;;;;;6.60;4.40;;;;;;;;;;774708;181;823064;-69
2023/03/09 04:15:39;;;;;;;8.00;4.67;;;;;;;;;;768156;181;920204;-67
2023/03/09 04:18:05;;;;;;;8.47;4.77;;;;;;;;;;771288;181;917692;-70
2023/03/09 04:20:31;;;;;;;6.40;4.37;;;;;;;;;;768772;181;916701;-70
2023/03/09 04:22:57;;;;;;;6.75;4.68;;;;;;;;;;774516;179;819751;-70
2023/03/09 04:25:23;;;;;;;7.60;5.17;;;;;;;;;;768054;181;918006;-68
2023/03/09 04:27:49;;;;;;;8.60;5.53;;;;;;;;;;770204;181;860220;-68
2023/03/09 04:30:20;;;;;;;10.13;4.97;;;;;;;;;;776473;180;918599;-70
2023/03/09 04:32:40;;;;;;;6.83;4.77;;;;;;;;;;768664;181;918684;-70
2023/03/09 04:35:06;;;;;;;7.80;5.03;;;;;;;;;;771135;180;918065;-68
2023/03/09 04:37:32;;;;;;;6.30;4.13;;;;;;;;;;775596;180;919678;-68
2023/03/09 04:39:58;;;;;;;8.50;5.40;;;;;;;;;;770170;180;914135;-68
2023/03/09 04:42:24;;;;;;;7.20;4.87;;;;;;;;;;772373;181;920528;-68
2023/03/09 04:44:50;;;;;;;6.13;4.60;;;;;;;;;;777054;181;918692;-70
2023/03/09 04:47:16;;;;;;;8.57;4.97;;;;;;;;;;774603;180;918695;-70
2023/03/09 04:49:41;;;;;;;7.90;5.40;;;;;;;;;;768130;180;919273;-71
2023/03/09 04:52:07;;;;;;;7.00;4.43;;;;;;;;;;769061;179;920257;-68
2023/03/09 04:54:33;;;;;;;7.50;4.40;;;;;;;;;;776822;181;916669;-67
2023/03/09 04:56:59;;;;;;;7.73;4.07;;;;;;;;;;766931;182;927106;-67
2023/03/09 04:59:25;;;;;;;7.90;4.37;;;;;;;;;;771218;181;812177;-69
2023/03/09 05:01:51;;;;;;;6.30;4.10;;;;;;;;;;774966;181;925275;-69
2023/03/09 05:04:17;;;;;;;7.57;3.90;;;;;;;;;;769485;180;815514;-70
2023/03/09 05:06:44;;;;;;;10.27;4.13;;;;;;;;;;769688;181;818483;-67
2023/03/09 05:09:08;;;;;;;5.73;3.77;;;;;;;;;;776537;180;918625;-66
2023/03/09 05:11:34;;;;;;;8.13;4.00;;;;;;;;;;773294;180;817863;-70
2023/03/09 05:14:00;;;;;;;5.30;3.60;;;;;;;;;;769701;180;891449;-68
2023/03/09 05:16:26;;;;;;;7.20;3.37;;;;;;;;;;770651;180;920582;-69
2023/03/09 05:18:52;;;;;;;8.50;4.20;;;;;;;;;;772494;177;907622;-69
2023/03/09 05:21:17;;;;;;;6.23;3.70;;;;;;;;;;765995;180;922279;-65
2023/03/09 05:23:43;;;;;;;6.20;4.20;;;;;;;;;;769717;180;919510;-66
2023/03/09 05:26:10;;;;;;;6.53;3.80;;;;;;;;;;775996;180;912197;-66
2023/03/09 05:28:35;;;;;;;6.37;4.23;;;;;;;;;;767013;181;919272;-68
2023/03/09 05:31:01;;;;;;;6.07;4.10;;;;;;;;;;770255;181;919964;-66
2023/03/09 05:33:27;;;;;;;7.50;3.93;;;;;;;;;;773706;181;914192;-65
2023/03/09 05:35:53;;;;;;;7.20;4.40;;;;;;;;;;769131;181;920784;-64
2023/03/09 05:38:18;;;;;;;8.03;3.80;;;;;;;;;;767642;181;919511;-67
2023/03/09 05:40:44;;;;;;;7.37;4.32;;;;;;;;;;773915;181;916734;-68
2023/03/09 05:43:10;;;;;;;8.00;4.33;;;;;;;;;;774136;179;929566;-68
2023/03/09 05:45:36;;;;;;;6.97;4.70;;;;;;;;;;766421;180;807623;-66
2023/03/09 05:48:02;;;;;;;9.57;5.73;;;;;;;;;;771316;181;918899;-64
2023/03/09 05:50:28;;;;;;;5.63;3.90;;;;;;;;;;776774;180;619754;-67
2023/03/09 05:52:54;;;;;;;7.87;4.70;;;;;;;;;;772482;180;627650;-64
2023/03/09 05:55:19;;;;;;;9.33;4.47;;;;;;;;;;768136;180;920134;-66
2023/03/09 05:57:45;;;;;;;8.30;4.47;;;;;;;;;;776805;181;816323;-65
2023/03/09 06:00:11;;;;;;;4.47;2.97;;;;;;;;;;771353;181;923830;-65
2023/03/09 06:02:37;;;;;;;5.40;3.80;;;;;;;;;;770276;181;915456;-66
2023/03/09 06:05:03;;;;;;;6.60;4.20;;;;;;;;;;778479;179;812525;-65
2023/03/09 06:07:29;;;;;;;7.30;3.70;;;;;;;;;;773063;180;911560;-63
2023/03/09 06:09:55;;;;;;;6.37;3.77;;;;;;;;;;776403;181;616684;-65
2023/03/09 06:12:21;;;;;;;7.15;4.30;;;;;;;;;;770955;181;812250;-66
2023/03/09 06:14:47;;;;;;;6.90;4.10;;;;;;;;;;779176;180;914680;-67
2023/03/09 06:17:13;;;;;;;7.85;4.62;;;;;;;;;;771800;179;919676;-66
2023/03/09 06:19:38;;;;;;;5.80;3.53;;;;;;;;;;765966;182;919344;-66
2023/03/09 06:22:04;;;;;;;6.10;4.05;;;;;;;;;;775461;181;918767;-67
2023/03/09 06:24:30;;;;;;;5.70;4.00;;;;;;;;;;774656;181;871252;-65
2023/03/09 06:26:56;;;;;;;5.53;3.47;;;;;;;;;;771525;181;918983;-62
2023/03/09 06:29:22;;;;;;;5.10;3.50;;;;;;;;;;773537;181;919188;-62
2023/03/09 06:31:48;;;;;;;4.43;2.97;;;;;;;;;;767078;181;932573;-63
2023/03/09 06:34:13;;;;;;;6.00;3.90;;;;;;;;;;775385;180;852688;-62
2023/03/09 06:36:39;;;;;;;7.23;4.00;;;;;;;;;;768973;179;919064;-62
2023/03/09 06:39:05;;;;;;;9.03;3.90;;;;;;;;;;767110;183;865071;-62
2023/03/09 06:41:31;;;;;;;5.00;2.93;;;;;;;;;;769226;181;942294;-62
2023/03/09 06:43:57;;;;;;;6.27;4.03;;;;;;;;;;769999;181;817640;-61
2023/03/09 06:46:23;;;;;;;11.50;3.83;;;;;;;;;;774774;180;921317;-62
2023/03/09 06:48:49;;;;;;;9.70;5.07;;;;;;;;;;771074;179;918558;-60
2023/03/09 06:51:14;;;;;;;6.83;4.90;;;;;;;;;;769246;181;930397;-61
2023/03/09 06:53:40;;;;;;;8.57;5.73;;;;;;;;;;773820;181;635558;-61
2023/03/09 06:56:06;;;;;;;9.00;4.40;;;;;;;;;;766327;181;928130;-63
2023/03/09 06:58:33;;;;;;;8.37;5.27;;;;;;;;;;769024;181;918671;-62
2023/03/09 07:00:58;;;;;;;13.40;6.00;;;;;;;;;;762033;183;919661;-62
2023/03/09 07:03:24;;;;;;;9.00;6.80;;;;;;;;;;766906;181;817224;-60
2023/03/09 07:05:50;;;;;;;14.97;6.27;;;;;;;;;;767124;180;922682;-61
2023/03/09 07:08:16;;;;;;;8.60;4.63;;;;;;;;;;770739;181;919163;-62
2023/03/09 07:10:41;;;;;;;9.30;5.00;;;;;;;;;;775957;180;919447;-61
2023/03/09 07:13:11;;;;;;;16.00;9.33;;;;;;;;;;771324;180;920463;-61
2023/03/09 07:15:37;;;;;;;19.75;10.45;;;;;;;;;;773064;179;910351;-63
2023/03/09 07:18:03;;;;;;;7.80;4.83;;;;;;;;;;775570;180;921483;-64
2023/03/09 07:20:29;;;;;;;7.72;5.62;;;;;;;;;;777720;180;920687;-62
2023/03/09 07:22:55;;;;;;;7.20;5.50;;;;;;;;;;768617;179;918531;-64
2023/03/09 07:25:21;;;;;;;11.33;5.27;;;;;;;;;;768067;181;919282;-65
2023/03/09 07:27:46;;;;;;;6.73;4.80;;;;;;;;;;781905;180;818172;-64
2023/03/09 07:30:13;;;;;;;7.53;5.10;;;;;;;;;;778654;181;633583;-65
2023/03/09 07:32:38;;;;;;;8.27;4.77;;;;;;;;;;769208;181;918805;-65
2023/03/09 07:35:05;;;;;;;8.50;4.90;;;;;;;;;;776030;180;817517;-67
2023/03/09 07:37:30;;;;;;;7.80;4.23;;;;;;;;;;769406;180;802193;-65
2023/03/09 07:39:56;;;;;;;10.93;5.10;;;;;;;;;;771380;181;919142;-65
2023/03/09 07:42:22;;;;;;;6.70;3.53;;;;;;;;;;772764;180;945385;-67
2023/03/09 07:44:48;;;;;;;9.00;4.73;;;;;;;;;;773659;180;655379;-65
2023/03/09 07:47:14;;;;;;;9.27;4.33;;;;;;;;;;770478;179;873394;-67
2023/03/09 07:49:40;;;;;;;10.80;5.40;;;;;;;;;;769202;181;919517;-66
2023/03/09 07:52:05;;;;;;;5.63;3.37;;;;;;;;;;780750;179;816907;-68
2023/03/09 07:54:33;;;;;;;4.83;3.17;;;;;;;;;;764779;181;1008611;-66
2023/03/09 07:56:57;;;;;;;6.73;4.17;;;;;;;;;;770605;179;918494;-65
2023/03/09 07:59:23;;;;;;;6.80;3.73;;;;;;;;;;776288;180;817415;-65
2023/03/09 08:01:49;;;;;;;5.07;3.23;;;;;;;;;;767857;181;920444;-66
2023/03/09 08:04:16;;;;;;;5.90;3.20;;;;;;;;;;769495;181;816904;-65
2023/03/09 08:06:40;;;;;;;7.90;4.03;;;;;;;;;;773325;179;908849;-67
2023/03/09 08:09:06;;;;;;;5.87;4.13;;;;;;;;;;765981;181;920510;-66
2023/03/09 08:11:33;;;;;;;8.70;3.43;;;;;;;;;;772299;180;918481;-67
2023/03/09 08:13:59;;;;;;;5.70;3.60;;;;;;;;;;773309;180;1019601;-66
2023/03/09 08:16:24;;;;;;;5.70;3.70;;;;;;;;;;767849;180;904477;-67
2023/03/09 08:18:50;;;;;;;4.40;2.80;;;;;;;;;;767708;180;916089;-65
2023/03/09 08:21:16;;;;;;;4.57;3.27;;;;;;;;;;771095;179;919961;-67
2023/03/09 08:23:43;;;;;;;7.20;2.87;;;;;;;;;;773721;181;921591;-68
2023/03/09 08:26:08;;;;;;;8.90;3.83;;;;;;;;;;767616;181;919360;-68
2023/03/09 08:28:34;;;;;;;5.73;2.80;;;;;;;;;;772985;179;916135;-67
2023/03/09 08:30:59;;;;;;;7.40;3.47;;;;;;;;;;774685;181;898924;-67
2023/03/09 08:33:25;;;;;;;3.90;2.43;;;;;;;;;;769301;181;846876;-67
2023/03/09 08:35:51;;;;;;;4.90;3.57;;;;;;;;;;768518;181;934546;-67
2023/03/09 08:38:17;;;;;;;6.37;3.37;;;;;;;;;;776061;181;917349;-66
2023/03/09 08:40:43;;;;;;;4.43;2.80;;;;;;;;;;769579;181;919671;-66
2023/03/09 08:43:09;;;;;;;5.00;2.73;;;;;;;;;;769606;180;816661;-64
2023/03/09 08:45:35;;;;;;;5.37;3.30;;;;;;;;;;771703;180;1011217;-64
2023/03/09 08:48:00;;;;;;;3.87;2.30;;;;;;;;;;774404;181;887278;-64
2023/03/09 08:50:26;;;;;;;4.97;3.07;;;;;;;;;;774123;180;985771;-65
2023/03/09 08:52:52;;;;;;;5.40;3.03;;;;;;;;;;770865;179;918974;-68
2023/03/09 08:55:18;;;;;;;6.10;3.27;;;;;;;;;;773195;181;919446;-66
2023/03/09 08:57:44;;;;;;;8.67;4.43;;;;;;;;;;767991;181;917340;-67
2023/03/09 09:00:10;;;;;;;7.50;4.20;;;;;;;;;;768447;181;993633;-66
2023/03/09 09:02:36;;;;;;;7.10;5.57;;;;;;;;;;775392;181;919426;-67
2023/03/09 09:05:02;;;;;;;4.50;3.40;;;;;;;;;;768761;181;916189;-67
2023/03/09 09:07:28;;;;;;;8.80;3.83;;;;;;;;;;765722;181;1075448;-63
2023/03/09 09:09:54;;;;;;;6.03;4.20;;;;;;;;;;767985;181;919541;-65
2023/03/09 09:12:20;;;;;;;6.07;4.03;;;;;;;;;;773716;179;914672;-64
2023/03/09 09:14:45;;;;;;;8.03;3.43;;;;;;;;;;768084;180;836127;-63
2023/03/09 09:17:11;;;;;;;7.30;3.93;;;;;;;;;;765021;181;919119;-62
2023/03/09 09:19:37;;;;;;;7.10;3.97;;;;;;;;;;775983;181;915128;-63
2023/03/09 09:22:03;;;;;;;7.63;4.50;;;;;;;;;;768414;179;900466;-60
2023/03/09 09:24:28;;;;;;;16.00;3.47;;;;;;;;;;769603;179;919157;-61
2023/03/09 09:26:55;;;;;;;9.00;3.10;;;;;;;;;;769595;181;917923;-60
2023/03/09 09:29:20;;;;;;;6.37;2.57;;;;;;;;;;769945;181;907646;-63
2023/03/09 09:31:46;;;;;;;3.00;2.00;;;;;;;;;;768551;181;832842;-61
2023/03/09 09:34:12;;;;;;;7.93;1.90;;;;;;;;;;772714;179;948562;-62
2023/03/09 09:36:38;;;;;;;5.07;1.90;;;;;;;;;;762030;182;916907;-60
2023/03/09 09:39:04;;;;;;;6.25;2.15;;;;;;;;;;768194;180;918600;-60
2023/03/09 09:41:31;;;;;;;2.40;1.43;;;;;;;;;;771063;180;921221;-61
2023/03/09 09:43:57;;;;;;;3.22;1.80;;;;;;;;;;772286;181;941164;-62
2023/03/09 09:46:24;;;;;;;3.43;1.53;;;;;;;;;;775058;180;905050;-62
2023/03/09 09:48:49;;;;;;;3.77;0.90;;;;;;;;;;771784;181;919268;-61
2023/03/09 09:51:33;;;;;;;3.53;1.60;;;;;;;;;;778525;180;917256;-64
2023/03/09 09:54:04;;;;;;;2.40;1.37;;;;;;;;;;771814;183;919037;-61
2023/03/09 09:56:44;;;;;;;2.73;1.30;;;;;;;;;;763612;182;816695;-63
2023/03/09 09:59:10;;;;;;;2.20;1.00;;;;;;;;;;767470;181;922143;-63
2023/03/09 10:01:36;;;;;;;2.57;1.33;;;;;;;;;;768097;181;918758;-62
2023/03/09 10:04:02;;;;;;;3.20;1.37;;;;;;;;;;771894;181;917008;-61
2023/03/09 10:06:27;;;;;;;3.00;2.03;;;;;;;;;;777568;180;919801;-63
2023/03/09 10:08:58;;;;;;;2.93;1.70;;;;;;;;;;768120;181;817706;-60
2023/03/09 10:11:24;;;;;;;4.07;2.13;;;;;;;;;;770137;181;919308;-63
2023/03/09 10:13:50;;;;;;;3.70;2.07;;;;;;;;;;771734;180;918687;-63
2023/03/09 10:16:17;;;;;;;4.90;2.20;;;;;;;;;;768618;181;919252;-60
2023/03/09 10:18:42;;;;;;;2.83;1.90;;;;;;;;;;770731;182;816138;-61
2023/03/09 10:21:12;;;;;;;3.57;1.90;;;;;;;;;;772349;180;890472;-61
2023/03/09 10:23:38;;;;;;;3.90;2.00;;;;;;;;;;777167;180;883481;-63
2023/03/09 10:26:04;;;;;;;4.20;2.00;;;;;;;;;;770133;181;917108;-60
2023/03/09 10:28:30;;;;;;;2.87;1.73;;;;;;;;;;772465;180;866942;-61
2023/03/09 10:30:56;;;;;;;2.90;1.60;;;;;;;;;;769851;181;918977;-60
2023/03/09 10:33:21;;;;;;;4.50;1.80;;;;;;;;;;766970;181;918419;-60
2023/03/09 10:35:48;;;;;;;6.05;1.52;;;;;;;;;;768501;181;1018830;-62
2023/03/09 10:38:14;;;;;;;2.60;1.60;;;;;;;;;;766573;181;927212;-60
2023/03/09 10:40:42;;;;;;;3.03;1.80;;;;;;;;;;772854;181;919409;-63
2023/03/09 10:43:07;;;;;;;4.90;1.93;;;;;;;;;;769003;181;918521;-62
2023/03/09 10:45:33;;;;;;;3.73;2.30;;;;;;;;;;772304;180;919338;-62
2023/03/09 10:47:59;;;;;;;3.00;1.87;;;;;;;;;;776409;180;813924;-64
2023/03/09 10:50:26;;;;;;;3.60;2.10;;;;;;;;;;771106;179;919457;-65
2023/03/09 10:52:51;;;;;;;2.80;1.57;;;;;;;;;;768165;180;926315;-65
2023/03/09 10:55:20;;;;;;;5.00;1.57;;;;;;;;;;779107;180;912516;-62
2023/03/09 10:57:46;;;;;;;2.87;1.67;;;;;;;;;;767368;182;920292;-63
2023/03/09 11:00:14;;;;;;;2.67;1.40;;;;;;;;;;772708;181;882389;-63
2023/03/09 11:02:41;;;;;;;2.70;1.50;;;;;;;;;;770269;180;918624;-66
2023/03/09 11:05:12;;;;;;;3.53;1.77;;;;;;;;;;773926;181;920202;-65
2023/03/09 11:07:37;;;;;;;3.90;1.40;;;;;;;;;;769714;180;876037;-65
2023/03/09 11:10:04;;;;;;;2.93;1.40;;;;;;;;;;769668;181;916373;-63
2023/03/09 11:12:32;;;;;;;2.70;1.80;;;;;;;;;;767687;181;972497;-64
2023/03/09 11:14:58;;;;;;;2.53;1.20;;;;;;;;;;771386;181;789661;-64
2023/03/09 11:17:25;;;;;;;3.23;1.33;;;;;;;;;;765341;181;918994;-65
2023/03/09 11:19:50;;;;;;;2.10;1.00;;;;;;;;;;769103;179;915727;-64
2023/03/09 11:22:16;;;;;;;2.00;1.20;;;;;;;;;;772648;179;869423;-63
2023/03/09 11:24:42;;;;;;;2.27;1.10;;;;;;;;;;762054;180;920122;-64
2023/03/09 11:27:08;;;;;;;2.97;1.40;;;;;;;;;;767706;179;917658;-65
2023/03/09 11:29:39;;;;;;;3.27;1.37;;;;;;;;;;775694;180;920015;-67
2023/03/09 11:32:06;;;;;;;2.07;0.93;;;;;;;;;;767850;181;917303;-64
2023/03/09 11:34:33;;;;;;;2.43;1.40;;;;;;;;;;767078;180;926747;-64
2023/03/09 11:37:00;;;;;;;3.33;1.20;;;;;;;;;;772305;181;821133;-64
2023/03/09 11:39:26;;;;;;;2.07;1.10;;;;;;;;;;775048;180;917509;-66
2023/03/09 11:41:53;;;;;;;2.43;1.43;;;;;;;;;;770482;180;918816;-66
2023/03/09 11:44:36;;;;;;;1.90;0.93;;;;;;;;;;772666;181;921832;-64
2023/03/09 11:47:02;;;;;;;2.20;1.20;;;;;;;;;;770468;181;920822;-66
2023/03/09 11:49:28;;;;;;;3.20;1.23;;;;;;;;;;768394;182;919106;-66
2023/03/09 11:51:54;;;;;;;3.47;1.93;;;;;;;;;;773526;180;822136;-66
2023/03/09 11:54:24;;;;;;;2.60;1.43;;;;;;;;;;768057;181;916678;-64
2023/03/09 11:56:49;;;;;;;4.00;2.63;;;;;;;;;;768122;180;820886;-67
2023/03/09 11:59:21;;;;;;;3.40;1.85;;;;;;;;;;773650;181;919846;-68
2023/03/09 12:01:52;;;;;;;3.33;1.40;;;;;;;;;;769368;180;919033;-65
2023/03/09 12:04:18;;;;;;;3.30;1.77;;;;;;;;;;772243;179;921042;-64
2023/03/09 12:06:47;;;;;;;2.80;1.80;;;;;;;;;;770495;180;918975;-67
2023/03/09 12:09:15;;;;;;;2.78;1.37;;;;;;;;;;776441;181;919634;-65
2023/03/09 12:11:41;;;;;;;2.50;1.40;;;;;;;;;;767540;180;916983;-65
2023/03/09 12:14:14;;;;;;;3.20;1.80;;;;;;;;;;769396;181;865278;-68
2023/03/09 12:16:40;;;;;;;3.70;2.10;;;;;;;;;;768439;180;927914;-66
2023/03/09 12:19:06;;;;;;;6.00;3.37;;;;;;;;;;774790;181;914292;-68
2023/03/09 12:21:33;;;;;;;4.70;2.50;;;;;;;;;;771277;181;909011;-66
2023/03/09 12:24:01;;;;;;;3.37;2.27;;;;;;;;;;770931;181;930585;-66
2023/03/09 12:26:27;;;;;;;2.95;1.62;;;;;;;;;;765529;181;919604;-67
2023/03/09 12:29:04;;;;;;;2.93;1.97;;;;;;;;;;777337;181;918859;-68
2023/03/09 12:31:31;;;;;;;2.30;1.40;;;;;;;;;;770408;180;917951;-66
2023/03/09 12:34:00;;;;;;;3.60;1.90;;;;;;;;;;767674;181;921849;-64
2023/03/09 12:36:28;;;;;;;2.87;1.80;;;;;;;;;;768351;181;919125;-67
2023/03/09 12:39:00;;;;;;;2.73;1.80;;;;;;;;;;772730;181;933867;-67
2023/03/09 12:41:26;;;;;;;2.50;1.50;;;;;;;;;;767976;182;716981;-64
2023/03/09 12:43:52;;;;;;;2.90;1.60;;;;;;;;;;769866;181;922889;-67
2023/03/09 12:46:23;;;;;;;2.10;1.13;;;;;;;;;;771355;180;918251;-66
2023/03/09 12:48:49;;;;;;;3.03;1.80;;;;;;;;;;773217;180;918148;-67
2023/03/09 12:51:18;;;;;;;2.40;1.40;;;;;;;;;;768448;181;836917;-66
2023/03/09 12:53:47;;;;;;;2.13;1.00;;;;;;;;;;768419;181;920027;-66
2023/03/09 12:56:12;;;;;;;2.30;1.60;;;;;;;;;;769462;181;917533;-66
2023/03/09 12:58:38;;;;;;;2.67;1.33;;;;;;;;;;774499;180;824306;-66
2023/03/09 13:01:07;;;;;;;2.10;1.30;;;;;;;;;;769089;181;919280;-64
2023/03/09 13:03:52;;;;;;;3.33;1.63;;;;;;;;;;770210;181;915513;-68
2023/03/09 13:06:33;;;;;;;2.53;1.60;;;;;;;;;;767891;181;882853;-64
2023/03/09 13:09:02;;;;;;;3.90;2.50;;;;;;;;;;769804;180;918903;-65
2023/03/09 13:11:31;;;;;;;2.73;1.83;;;;;;;;;;772217;179;817663;-64
2023/03/09 13:13:56;;;;;;;6.70;3.27;;;;;;;;;;760517;181;870100;-63
2023/03/09 13:16:42;;;;;;;2.87;1.80;;;;;;;;;;771671;179;918869;-63
2023/03/09 13:19:28;;;;;;;2.30;1.50;;;;;;;;;;766598;180;918057;-64
2023/03/09 13:22:09;;;;;;;2.30;1.40;;;;;;;;;;766540;181;919970;-65
2023/03/09 13:24:37;;;;;;;2.40;1.50;;;;;;;;;;769983;180;920857;-64
2023/03/09 13:27:04;;;;;;;3.13;1.80;;;;;;;;;;768018;180;897111;-65
2023/03/09 13:29:30;;;;;;;2.97;1.90;;;;;;;;;;772032;181;920372;-65
2023/03/09 13:31:56;;;;;;;2.50;1.80;;;;;;;;;;779396;180;623827;-63
2023/03/09 13:34:22;;;;;;;2.80;1.90;;;;;;;;;;774600;180;635290;-63
2023/03/09 13:36:51;;;;;;;2.90;1.70;;;;;;;;;;772074;181;815993;-62
2023/03/09 13:39:17;;;;;;;2.57;1.97;;;;;;;;;;774033;181;921077;-64
2023/03/09 13:41:43;;;;;;;2.60;1.60;;;;;;;;;;772207;180;919120;-63
2023/03/09 13:44:14;;;;;;;4.53;2.43;;;;;;;;;;774642;180;806363;-64
2023/03/09 13:46:42;;;;;;;7.20;3.03;;;;;;;;;;766468;181;816754;-62
2023/03/09 13:49:07;;;;;;;3.83;2.80;;;;;;;;;;775016;181;612922;-63
2023/03/09 13:51:32;;;;;;;3.63;2.57;;;;;;;;;;774914;180;818131;-63
2023/03/09 13:53:58;;;;;;;4.00;3.10;;;;;;;;;;769960;181;918701;-64
2023/03/09 13:56:24;;;;;;;3.85;2.80;;;;;;;;;;775224;181;918920;-64
2023/03/09 13:58:50;;;;;;;4.57;2.53;;;;;;;;;;768868;180;919901;-64
2023/03/09 14:01:18;;;;;;;5.90;2.80;;;;;;;;;;771658;181;870964;-64
2023/03/09 14:03:44;;;;;;;3.40;2.23;;;;;;;;;;770228;181;919204;-64
2023/03/09 14:06:10;;;;;;;4.27;3.53;;;;;;;;;;770226;179;919328;-63
2023/03/09 14:08:39;;;;;;;6.03;2.43;;;;;;;;;;766767;180;918520;-64
2023/03/09 14:11:05;;;;;;;3.40;2.33;;;;;;;;;;770420;181;919149;-65
2023/03/09 14:13:31;;;;;;;3.75;2.62;;;;;;;;;;776348;180;919714;-63
2023/03/09 14:15:58;;;;;;;7.47;3.33;;;;;;;;;;769283;180;1156637;-65
2023/03/09 14:18:24;;;;;;;2.83;2.20;;;;;;;;;;768676;179;930353;-64
2023/03/09 14:20:52;;;;;;;3.33;2.70;;;;;;;;;;770107;181;947150;-64
2023/03/09 14:23:17;;;;;;;3.43;2.67;;;;;;;;;;771887;180;812455;-63
2023/03/09 14:25:42;;;;;;;3.97;3.37;;;;;;;;;;765814;181;1001178;-62